Time;durP1;ratioP1;P1;durP2;ratioP2;P2;SDS_P1;SDS_P2;PMS_P1;PMS_P2;Temp;Humidity;BMP_temperature;BMP_pressure;BME280_temperature;BME280_humidity;BME280_pressure;Samples;Min_cycle;Max_cycle;Signal;HPM_P1;HPM_P2
2022/01/29 00:01:02;;;;;;;19.77;9.37;;;;;;;4.12;100.00;101669.38;4977249;28;20309;-62
2022/01/29 00:03:27;;;;;;;11.77;8.23;;;;;;;4.14;100.00;101658.34;5004851;28;20179;-62
2022/01/29 00:05:57;;;;;;;13.77;9.07;;;;;;;4.14;100.00;101655.81;4990630;28;20680;-63
2022/01/29 00:08:22;;;;;;;16.97;9.33;;;;;;;4.32;100.00;101656.59;4991560;28;20251;-64
2022/01/29 00:10:53;;;;;;;14.03;8.97;;;;;;;4.25;100.00;101643.03;4986787;28;20229;-64
2022/01/29 00:13:18;;;;;;;12.90;8.83;;;;;;;4.13;100.00;101649.03;5014880;28;20186;-64
2022/01/29 00:15:43;;;;;;;15.47;9.03;;;;;;;4.21;100.00;101649.00;5003408;28;20610;-64
2022/01/29 00:18:09;;;;;;;12.23;8.77;;;;;;;4.28;100.00;101644.72;5008913;28;20187;-64
2022/01/29 00:20:34;;;;;;;14.70;8.93;;;;;;;4.17;100.00;101635.41;4989082;28;20246;-64
2022/01/29 00:22:59;;;;;;;15.63;9.00;;;;;;;4.12;100.00;101634.59;5013946;28;20190;-65
2022/01/29 00:25:25;;;;;;;14.77;9.33;;;;;;;4.15;100.00;101637.09;4990991;28;20182;-63
2022/01/29 00:27:52;;;;;;;14.13;10.13;;;;;;;4.09;100.00;101636.28;4991150;28;20586;-63
2022/01/29 00:30:18;;;;;;;15.33;8.70;;;;;;;4.13;100.00;101633.72;4960571;28;20187;-63
2022/01/29 00:32:44;;;;;;;14.03;9.80;;;;;;;4.08;100.00;101654.97;4992230;28;20656;-64
2022/01/29 00:35:10;;;;;;;16.57;9.53;;;;;;;3.98;100.00;101651.59;5012814;28;20217;-62
2022/01/29 00:37:35;;;;;;;15.50;9.43;;;;;;;3.87;100.00;101652.47;5017789;28;20195;-63
2022/01/29 00:40:01;;;;;;;15.47;9.33;;;;;;;3.95;100.00;101657.53;5009716;28;20241;-63
2022/01/29 00:42:27;;;;;;;15.43;9.77;;;;;;;4.09;100.00;101656.66;4981382;28;20590;-62
2022/01/29 00:44:52;;;;;;;13.87;8.80;;;;;;;4.16;100.00;101655.81;5011865;28;20185;-62
2022/01/29 00:47:17;;;;;;;15.27;9.53;;;;;;;4.17;100.00;101650.69;5013206;28;20210;-63
2022/01/29 00:49:43;;;;;;;13.03;8.70;;;;;;;4.12;100.00;101643.91;5008851;28;20175;-62
2022/01/29 00:52:09;;;;;;;13.77;9.30;;;;;;;4.29;100.00;101648.94;4997680;28;20622;-64
2022/01/29 00:54:34;;;;;;;14.03;9.73;;;;;;;4.25;100.00;101637.09;4995934;28;20194;-62
2022/01/29 00:57:00;;;;;;;13.50;8.90;;;;;;;4.24;100.00;101641.31;5012623;28;20288;-61
2022/01/29 00:59:25;;;;;;;12.80;9.40;;;;;;;4.29;100.00;101636.22;5013417;28;20914;-65
2022/01/29 01:01:50;;;;;;;15.40;9.73;;;;;;;4.20;100.00;101644.75;5000420;28;20246;-60
2022/01/29 01:04:16;;;;;;;11.33;8.77;;;;;;;4.28;100.00;101637.06;4989713;28;20250;-62
2022/01/29 01:06:41;;;;;;;13.57;9.00;;;;;;;4.26;100.00;101623.50;5003821;28;20739;-61
2022/01/29 01:09:06;;;;;;;15.60;9.63;;;;;;;4.20;100.00;101615.03;4997329;28;20683;-61
2022/01/29 01:11:32;;;;;;;15.30;8.87;;;;;;;3.97;100.00;101619.34;4985457;28;20227;-61
2022/01/29 01:13:57;;;;;;;12.47;8.97;;;;;;;4.02;100.00;101622.75;4990173;28;20262;-62
2022/01/29 01:16:22;;;;;;;14.30;9.07;;;;;;;3.94;100.00;101614.25;4998271;28;20286;-61
2022/01/29 01:18:48;;;;;;;11.60;8.57;;;;;;;4.01;100.00;101611.69;4999593;28;20277;-62
2022/01/29 01:21:14;;;;;;;14.87;8.97;;;;;;;4.01;100.00;101608.31;4998729;28;20561;-61
2022/01/29 01:23:39;;;;;;;12.00;8.33;;;;;;;3.99;100.00;101599.81;5002687;28;20182;-62
2022/01/29 01:26:05;;;;;;;12.30;8.43;;;;;;;4.12;100.00;101606.56;5000857;28;20203;-62
2022/01/29 01:28:30;;;;;;;12.17;8.60;;;;;;;3.96;100.00;101598.13;4998914;28;20186;-63
2022/01/29 01:30:55;;;;;;;14.53;9.03;;;;;;;3.88;100.00;101599.84;4998293;28;20388;-62
2022/01/29 01:33:21;;;;;;;14.00;7.87;;;;;;;3.84;100.00;101593.91;4975044;28;20205;-62
2022/01/29 01:35:51;;;;;;;10.80;8.37;;;;;;;3.94;100.00;101576.06;4997465;28;20345;-63
2022/01/29 01:38:21;;;;;;;11.73;8.20;;;;;;;3.86;100.00;101573.56;4997651;28;20202;-61
2022/01/29 01:40:52;;;;;;;11.77;7.93;;;;;;;3.89;100.00;101573.53;4997804;28;20325;-62
2022/01/29 01:43:18;;;;;;;12.33;7.90;;;;;;;3.97;100.00;101573.50;5001371;28;20212;-62
2022/01/29 01:45:43;;;;;;;11.60;8.43;;;;;;;3.99;100.00;101562.44;5013612;28;20198;-61
2022/01/29 01:48:08;;;;;;;10.53;8.00;;;;;;;3.89;100.00;101550.63;5011046;28;20240;-64
2022/01/29 01:50:35;;;;;;;13.20;7.67;;;;;;;3.83;100.00;101543.88;5000740;28;20258;-61
2022/01/29 01:53:00;;;;;;;12.27;8.10;;;;;;;3.78;100.00;101540.47;5009322;28;20637;-61
2022/01/29 01:55:26;;;;;;;13.07;8.50;;;;;;;3.77;100.00;101537.94;4993902;28;20175;-61
2022/01/29 01:57:52;;;;;;;10.27;7.37;;;;;;;3.80;100.00;101543.88;5012131;28;20181;-62
2022/01/29 02:00:18;;;;;;;11.23;8.27;;;;;;;3.79;100.00;101533.69;4998157;28;20207;-62
2022/01/29 02:02:43;;;;;;;10.90;7.77;;;;;;;3.70;100.00;101526.94;4993003;28;20532;-62
2022/01/29 02:05:09;;;;;;;11.47;8.00;;;;;;;3.74;100.00;101517.59;4993694;28;20192;-62
2022/01/29 02:07:35;;;;;;;13.03;8.60;;;;;;;3.70;100.00;101509.13;5010207;28;20249;-62
2022/01/29 02:10:01;;;;;;;12.17;8.30;;;;;;;3.74;100.00;101504.88;5013252;28;20559;-62
2022/01/29 02:12:30;;;;;;;12.47;7.90;;;;;;;3.78;100.00;101512.47;4996577;28;20277;-62
2022/01/29 02:14:59;;;;;;;13.03;8.50;;;;;;;3.71;100.00;101515.91;4993501;28;20197;-61
2022/01/29 02:17:25;;;;;;;12.33;9.00;;;;;;;3.64;100.00;101520.16;5005891;28;20214;-62
2022/01/29 02:19:50;;;;;;;15.27;9.30;;;;;;;3.68;100.00;101515.91;5010901;28;20194;-61
2022/01/29 02:22:15;;;;;;;15.13;9.27;;;;;;;3.71;100.00;101505.72;4974590;28;20250;-61
2022/01/29 02:24:41;;;;;;;13.30;9.80;;;;;;;3.64;100.00;101497.25;4978294;28;20194;-63
2022/01/29 02:27:06;;;;;;;10.97;8.60;;;;;;;3.58;100.00;101492.19;4987100;28;20677;-61
2022/01/29 02:29:33;;;;;;;12.33;8.60;;;;;;;3.59;100.00;101488.78;4991332;28;20198;-61
2022/01/29 02:31:58;;;;;;;15.30;9.43;;;;;;;3.66;100.00;101485.38;4969117;28;20288;-62
2022/01/29 02:34:24;;;;;;;12.33;9.33;;;;;;;3.60;100.00;101492.16;5001960;28;20190;-61
2022/01/29 02:36:53;;;;;;;11.23;9.03;;;;;;;3.70;100.00;101486.22;4992428;28;20202;-63
2022/01/29 02:39:20;;;;;;;13.83;9.83;;;;;;;3.68;100.00;101477.72;4992614;28;20651;-62
2022/01/29 02:41:45;;;;;;;14.13;9.30;;;;;;;3.68;100.00;101485.38;4967498;28;20258;-61
2022/01/29 02:44:18;;;;;;;14.40;9.10;;;;;;;3.70;100.00;101476.88;4977142;28;20654;-61
2022/01/29 02:46:52;;;;;;;15.90;10.57;;;;;;;3.64;100.00;101465.88;4976786;28;20214;-61
2022/01/29 02:49:19;;;;;;;14.80;10.27;;;;;;;3.58;100.00;101456.56;4986984;28;20187;-62
2022/01/29 02:51:52;;;;;;;15.70;10.27;;;;;;;3.56;100.00;101458.28;4967879;28;20338;-61
2022/01/29 02:54:18;;;;;;;15.40;10.50;;;;;;;3.65;100.00;101449.75;4976553;28;20234;-61
2022/01/29 02:56:43;;;;;;;14.93;10.23;;;;;;;3.52;100.00;101452.34;4985904;28;20223;-61
2022/01/29 02:59:09;;;;;;;13.63;9.50;;;;;;;3.61;100.00;101443.84;4991227;28;20206;-63
2022/01/29 03:01:35;;;;;;;16.73;11.00;;;;;;;3.66;100.00;101452.28;4974341;28;20716;-61
2022/01/29 03:04:01;;;;;;;15.17;11.90;;;;;;;3.65;100.00;101453.16;4996372;28;20201;-61
2022/01/29 03:06:26;;;;;;;15.67;11.47;;;;;;;3.77;100.00;101452.25;5002390;28;20214;-62
2022/01/29 03:08:52;;;;;;;14.87;11.80;;;;;;;3.66;100.00;101452.28;4991974;28;20178;-62
2022/01/29 03:11:19;;;;;;;15.67;11.43;;;;;;;3.75;100.00;101453.13;4986506;28;20349;-62
2022/01/29 03:13:46;;;;;;;15.03;11.63;;;;;;;3.66;100.00;101443.81;4979805;28;20195;-60
2022/01/29 03:16:11;;;;;;;18.47;12.20;;;;;;;3.65;100.00;101432.78;4973516;28;20200;-63
2022/01/29 03:18:36;;;;;;;14.40;11.40;;;;;;;3.60;100.00;101442.13;4998095;28;20490;-62
2022/01/29 03:21:02;;;;;;;13.87;11.03;;;;;;;3.53;100.00;101443.84;4985364;28;20622;-62
2022/01/29 03:23:27;;;;;;;15.80;10.67;;;;;;;3.61;100.00;101437.88;4986311;28;20180;-62
2022/01/29 03:25:52;;;;;;;17.10;12.33;;;;;;;3.69;100.00;101426.81;4981745;28;20203;-61
2022/01/29 03:28:18;;;;;;;16.33;12.43;;;;;;;3.76;100.00;101402.19;4972832;28;20195;-62
2022/01/29 03:30:44;;;;;;;16.27;11.50;;;;;;;3.71;100.00;101411.56;4972902;28;20242;-62
2022/01/29 03:33:10;;;;;;;16.10;11.27;;;;;;;3.69;100.00;101403.09;4984129;28;20366;-61
2022/01/29 03:35:35;;;;;;;16.53;12.27;;;;;;;3.70;100.00;101412.41;4973759;28;20271;-62
2022/01/29 03:38:00;;;;;;;17.40;12.53;;;;;;;3.72;100.00;101409.00;4976204;28;20274;-62
2022/01/29 03:40:26;;;;;;;17.13;12.23;;;;;;;3.75;100.00;101408.13;4968579;28;20274;-62
2022/01/29 03:43:08;;;;;;;15.93;12.33;;;;;;;3.96;100.00;101413.97;4980295;28;20223;-62
2022/01/29 03:45:33;;;;;;;15.07;12.47;;;;;;;3.82;100.00;101411.50;4990172;28;20274;-62
2022/01/29 03:48:00;;;;;;;16.80;11.47;;;;;;;3.82;100.00;101402.16;4976134;28;20188;-61
2022/01/29 03:50:25;;;;;;;18.03;12.67;;;;;;;3.68;100.00;101414.97;4962358;28;20235;-63
2022/01/29 03:52:51;;;;;;;14.77;11.47;;;;;;;3.65;100.00;101398.88;4975764;28;20174;-61
2022/01/29 03:55:17;;;;;;;18.03;12.80;;;;;;;3.62;100.00;101394.66;4983219;28;20199;-61
2022/01/29 03:57:42;;;;;;;17.33;12.33;;;;;;;3.58;100.00;101394.66;4973437;28;20254;-62
2022/01/29 04:00:08;;;;;;;15.43;12.50;;;;;;;3.49;100.00;101390.47;4971428;28;20234;-63
2022/01/29 04:02:33;;;;;;;14.93;12.30;;;;;;;3.65;100.00;101409.06;5008434;28;20304;-63
2022/01/29 04:04:59;;;;;;;17.73;13.17;;;;;;;3.78;100.00;101407.28;5009361;28;20185;-62
2022/01/29 04:07:24;;;;;;;17.40;12.17;;;;;;;3.69;100.00;101393.72;4991454;28;20261;-62
2022/01/29 04:09:51;;;;;;;18.63;12.60;;;;;;;3.81;100.00;101397.94;5001446;28;20183;-63
2022/01/29 04:12:17;;;;;;;18.23;12.77;;;;;;;3.70;100.00;101390.34;5015893;28;20276;-63
2022/01/29 04:14:43;;;;;;;18.10;12.90;;;;;;;3.75;100.00;101395.41;4992099;28;20211;-62
2022/01/29 04:17:10;;;;;;;20.77;12.87;;;;;;;3.52;100.00;101391.28;4996812;28;20686;-61
2022/01/29 04:19:35;;;;;;;19.17;14.13;;;;;;;3.46;100.00;101398.94;4999474;28;20186;-62
2022/01/29 04:22:03;;;;;;;16.60;12.30;;;;;;;3.61;100.00;101397.19;4983470;28;20234;-63
2022/01/29 04:24:28;;;;;;;18.27;13.10;;;;;;;3.59;100.00;101398.91;5006474;28;20178;-62
2022/01/29 04:26:53;;;;;;;18.03;11.73;;;;;;;3.57;100.00;101403.97;5009359;28;20194;-62
2022/01/29 04:29:20;;;;;;;16.90;12.70;;;;;;;3.72;100.00;101392.88;5010265;28;20272;-62
2022/01/29 04:32:00;;;;;;;18.03;12.70;;;;;;;3.60;100.00;101381.06;4998386;28;20284;-62
2022/01/29 04:34:26;;;;;;;18.07;13.33;;;;;;;3.50;100.00;101381.97;5004812;28;20172;-63
2022/01/29 04:36:51;;;;;;;19.27;12.47;;;;;;;3.54;100.00;101374.31;5004142;28;20694;-61
2022/01/29 04:39:17;;;;;;;18.60;12.73;;;;;;;3.45;100.00;101365.88;5018738;28;20173;-63
2022/01/29 04:41:42;;;;;;;18.80;12.93;;;;;;;3.37;100.00;101353.19;5013087;28;20265;-61
2022/01/29 04:44:08;;;;;;;18.70;13.13;;;;;;;3.34;100.00;101363.41;5008665;28;20254;-61
2022/01/29 04:46:33;;;;;;;15.80;11.57;;;;;;;3.39;100.00;101361.66;5010216;28;20631;-61
2022/01/29 04:48:58;;;;;;;17.00;12.53;;;;;;;3.37;100.00;101371.00;5009961;28;20170;-61
2022/01/29 04:51:24;;;;;;;17.27;12.37;;;;;;;3.46;100.00;101370.09;5010766;28;20313;-62
2022/01/29 04:53:49;;;;;;;16.27;12.37;;;;;;;3.44;100.00;101372.66;5015031;28;20190;-61
2022/01/29 04:56:15;;;;;;;15.13;11.90;;;;;;;3.47;100.00;101369.25;5009776;28;20208;-62
2022/01/29 04:58:40;;;;;;;15.63;11.13;;;;;;;3.41;100.00;101365.03;5010303;28;20599;-62
2022/01/29 05:01:06;;;;;;;15.87;10.87;;;;;;;3.46;100.00;101360.78;5008039;28;21071;-62
2022/01/29 05:03:32;;;;;;;15.10;11.57;;;;;;;3.48;100.00;101343.81;5016922;28;20584;-62
2022/01/29 05:05:58;;;;;;;14.40;10.87;;;;;;;3.58;100.00;101356.50;5010537;28;20204;-62
2022/01/29 05:08:24;;;;;;;13.23;10.83;;;;;;;3.54;100.00;101345.47;5009996;28;20170;-62
2022/01/29 05:10:49;;;;;;;16.67;11.10;;;;;;;3.62;100.00;101350.53;4999608;28;20230;-63
2022/01/29 05:13:19;;;;;;;17.20;11.97;;;;;;;3.53;100.00;101347.16;4999515;28;20640;-61
2022/01/29 05:29:36;;;;;;;14.93;9.80;;;;;;;3.44;100.00;101328.59;4973249;28;20226;-63
2022/01/29 05:32:05;;;;;;;12.57;8.97;;;;;;;3.53;100.00;101323.44;4969280;28;20230;-61
2022/01/29 05:34:31;;;;;;;15.03;10.13;;;;;;;3.53;100.00;101313.25;4991999;28;20252;-61
2022/01/29 05:36:56;;;;;;;12.10;9.60;;;;;;;3.57;100.00;101325.09;4996740;28;20671;-62
2022/01/29 05:39:24;;;;;;;14.37;9.43;;;;;;;3.58;100.00;101339.50;4985349;28;20198;-62
2022/01/29 05:41:49;;;;;;;11.67;9.67;;;;;;;3.50;100.00;101334.47;4967265;28;20242;-62
2022/01/29 05:44:15;;;;;;;11.63;8.97;;;;;;;3.49;100.00;101335.31;4973144;28;20624;-62
2022/01/29 05:46:40;;;;;;;17.33;9.33;;;;;;;3.59;100.00;101320.03;4990756;28;20219;-62
2022/01/29 05:49:05;;;;;;;11.50;9.27;;;;;;;3.74;100.00;101327.53;4976889;28;20180;-62
2022/01/29 05:51:31;;;;;;;11.50;8.83;;;;;;;3.67;100.00;101330.97;4962078;28;20227;-61
2022/01/29 05:53:58;;;;;;;12.20;9.30;;;;;;;3.79;100.00;101330.06;4971589;28;20198;-62
2022/01/29 05:56:24;;;;;;;13.17;9.50;;;;;;;3.72;100.00;101322.47;4971844;28;20195;-63
2022/01/29 05:58:49;;;;;;;12.13;9.67;;;;;;;3.73;100.00;101325.84;4973928;28;20196;-62
2022/01/29 06:01:15;;;;;;;10.60;9.27;;;;;;;3.63;100.00;101326.78;4979850;28;20239;-61
2022/01/29 06:03:40;;;;;;;14.90;9.60;;;;;;;3.70;100.00;101325.88;4989148;28;20549;-62
2022/01/29 06:06:05;;;;;;;15.03;9.17;;;;;;;3.69;100.00;101331.81;5001542;28;20241;-63
2022/01/29 06:08:31;;;;;;;15.17;10.57;;;;;;;3.69;100.00;101330.13;5013271;28;20203;-63
2022/01/29 06:10:56;;;;;;;13.30;9.67;;;;;;;3.54;100.00;101332.75;4991926;28;20234;-63
2022/01/29 06:13:21;;;;;;;15.13;10.50;;;;;;;3.61;100.00;101333.56;5005182;28;20686;-62
2022/01/29 06:15:50;;;;;;;13.77;10.00;;;;;;;3.69;100.00;101334.38;4993487;28;20242;-61
2022/01/29 06:18:19;;;;;;;11.97;9.43;;;;;;;3.70;100.00;101334.34;5008829;28;20537;-61
2022/01/29 06:20:47;;;;;;;13.63;9.80;;;;;;;3.83;100.00;101324.09;4989192;28;20596;-63
2022/01/29 06:23:14;;;;;;;12.83;9.80;;;;;;;3.62;100.00;101323.41;5008076;28;20175;-61
2022/01/29 06:25:39;;;;;;;13.60;9.97;;;;;;;3.64;100.00;101321.66;4993301;28;20179;-62
2022/01/29 06:28:05;;;;;;;12.30;9.80;;;;;;;3.51;100.00;101318.38;4991506;28;20186;-61
2022/01/29 06:30:31;;;;;;;12.33;9.60;;;;;;;3.52;100.00;101314.97;4986803;28;20235;-61
2022/01/29 06:32:56;;;;;;;13.37;10.20;;;;;;;3.58;100.00;101325.97;4986973;28;20172;-62
2022/01/29 06:35:22;;;;;;;13.00;10.20;;;;;;;3.69;100.00;101319.94;4979907;28;20539;-62
2022/01/29 06:37:47;;;;;;;14.23;10.23;;;;;;;3.65;100.00;101325.06;5009532;28;20225;-63
2022/01/29 06:40:13;;;;;;;12.90;9.73;;;;;;;3.63;100.00;101325.06;4989642;28;20294;-61
2022/01/29 06:42:39;;;;;;;15.30;10.80;;;;;;;3.50;100.00;101315.84;4976140;28;20175;-61
2022/01/29 06:45:05;;;;;;;13.43;10.33;;;;;;;3.51;100.00;101313.28;4990615;28;20175;-61
2022/01/29 06:47:31;;;;;;;14.57;10.43;;;;;;;3.52;100.00;101309.88;4992132;28;20225;-61
2022/01/29 06:49:57;;;;;;;12.27;10.27;;;;;;;3.42;100.00;101318.41;4981687;28;20179;-61
2022/01/29 06:52:22;;;;;;;13.07;9.50;;;;;;;3.51;100.00;101314.97;4964092;28;20245;-62
2022/01/29 06:54:48;;;;;;;15.60;9.53;;;;;;;3.52;100.00;101322.59;4983296;28;20234;-62
2022/01/29 06:57:13;;;;;;;14.97;10.17;;;;;;;3.57;100.00;101319.19;4988914;28;20210;-62
2022/01/29 06:59:39;;;;;;;11.93;9.87;;;;;;;3.66;100.00;101314.88;4987786;28;20187;-62
2022/01/29 07:02:04;;;;;;;13.67;10.50;;;;;;;3.63;100.00;101314.06;4963952;28;20226;-62
2022/01/29 07:04:30;;;;;;;13.40;10.67;;;;;;;3.63;100.00;101311.50;4987356;28;20651;-62
2022/01/29 07:06:55;;;;;;;13.00;9.73;;;;;;;3.46;100.00;101314.13;4978447;28;20250;-61
2022/01/29 07:09:20;;;;;;;15.80;11.13;;;;;;;3.48;100.00;101309.91;4993464;28;20273;-62
2022/01/29 07:11:47;;;;;;;16.67;11.60;;;;;;;3.35;100.00;101307.41;4963636;28;20281;-62
2022/01/29 07:14:17;;;;;;;13.57;11.23;;;;;;;3.46;100.00;101309.06;4971045;28;20179;-61
2022/01/29 07:16:43;;;;;;;14.13;11.47;;;;;;;3.54;100.00;101313.25;4981481;28;20624;-62
2022/01/29 07:19:09;;;;;;;14.10;11.23;;;;;;;3.47;100.00;101303.13;4981103;28;20587;-61
2022/01/29 07:21:34;;;;;;;15.93;11.60;;;;;;;3.50;100.00;101298.03;4969412;28;20815;-62
2022/01/29 07:24:00;;;;;;;12.67;10.43;;;;;;;3.41;100.00;101291.25;4987756;28;20194;-61
2022/01/29 07:26:25;;;;;;;12.73;11.00;;;;;;;3.46;100.00;101297.19;4992014;28;20203;-62
2022/01/29 07:28:50;;;;;;;13.03;11.10;;;;;;;3.50;100.00;101296.31;4979533;28;20202;-62
2022/01/29 07:31:16;;;;;;;14.70;11.13;;;;;;;3.48;100.00;101284.47;4980803;28;20735;-61
2022/01/29 07:33:41;;;;;;;12.47;10.97;;;;;;;3.44;100.00;101281.09;4990198;28;20218;-62
2022/01/29 07:36:06;;;;;;;11.93;10.00;;;;;;;3.43;100.00;101276.00;4990945;28;20723;-63
2022/01/29 07:38:32;;;;;;;13.97;10.20;;;;;;;3.57;100.00;101266.56;4989280;28;20167;-62
2022/01/29 07:40:57;;;;;;;12.50;10.20;;;;;;;3.69;100.00;101274.13;4968017;28;20712;-63
2022/01/29 07:43:22;;;;;;;12.40;10.57;;;;;;;3.71;100.00;101271.59;4975440;28;20624;-63
2022/01/29 07:45:48;;;;;;;12.97;9.53;;;;;;;3.87;100.00;101273.16;4985941;28;20195;-62
2022/01/29 07:48:13;;;;;;;10.80;9.07;;;;;;;3.92;100.00;101259.53;4988712;28;20182;-63
2022/01/29 07:50:38;;;;;;;10.53;8.50;;;;;;;3.85;100.00;101263.84;4975837;28;20248;-63
2022/01/29 07:53:04;;;;;;;9.47;8.30;;;;;;;3.92;100.00;101267.19;4973519;28;20176;-62
2022/01/29 07:55:31;;;;;;;8.23;7.40;;;;;;;4.08;100.00;101265.34;5005625;28;20232;-62
2022/01/29 07:57:58;;;;;;;10.07;8.03;;;;;;;4.12;100.00;101261.91;4975128;28;20649;-63
2022/01/29 08:00:23;;;;;;;8.80;7.30;;;;;;;4.21;100.00;101269.47;4966783;28;20243;-62
2022/01/29 08:02:48;;;;;;;7.37;6.43;;;;;;;4.34;100.00;101267.66;5018426;28;20181;-63
2022/01/29 08:05:14;;;;;;;8.83;6.97;;;;;;;4.61;100.00;101274.16;5009995;28;20183;-63
2022/01/29 08:07:39;;;;;;;7.20;6.43;;;;;;;4.89;100.00;101266.22;5011326;28;20341;-64
2022/01/29 08:10:06;;;;;;;6.83;6.13;;;;;;;4.72;99.23;101271.50;5000286;28;20175;-64
2022/01/29 08:12:31;;;;;;;7.83;6.67;;;;;;;4.60;100.00;101267.41;5008959;28;20189;-63
2022/01/29 08:14:56;;;;;;;6.57;5.83;;;;;;;4.48;100.00;101277.72;5013139;28;20642;-63
2022/01/29 08:17:22;;;;;;;6.77;5.47;;;;;;;4.52;100.00;101266.63;4982559;28;20243;-62
2022/01/29 08:19:49;;;;;;;6.00;5.40;;;;;;;4.34;100.00;101267.66;5013524;28;20170;-63
2022/01/29 08:22:15;;;;;;;6.70;5.80;;;;;;;4.43;100.00;101261.59;5021676;28;20226;-63
2022/01/29 08:24:41;;;;;;;8.03;6.03;;;;;;;4.50;100.00;101263.25;5008127;28;20170;-60
2022/01/29 08:27:06;;;;;;;7.60;6.53;;;;;;;4.48;100.00;101267.53;5010602;28;20250;-63
2022/01/29 08:29:32;;;;;;;9.33;6.10;;;;;;;4.45;100.00;101260.75;5013957;28;20186;-62
2022/01/29 08:31:57;;;;;;;7.07;6.10;;;;;;;4.55;100.00;101268.28;4993765;28;20237;-62
2022/01/29 08:34:22;;;;;;;7.43;5.47;;;;;;;4.56;100.00;101272.53;5012308;28;20671;-61
2022/01/29 08:36:49;;;;;;;7.00;5.90;;;;;;;4.48;100.00;101257.34;5004867;28;20190;-63
2022/01/29 08:39:14;;;;;;;6.63;5.27;;;;;;;4.48;100.00;101263.25;5009788;28;20276;-64
2022/01/29 08:41:40;;;;;;;5.60;5.00;;;;;;;4.40;100.00;101265.03;5008692;28;20258;-60
2022/01/29 08:44:05;;;;;;;6.27;4.97;;;;;;;4.48;100.00;101270.06;5015126;28;20194;-64
2022/01/29 08:46:30;;;;;;;5.53;5.03;;;;;;;4.44;100.00;101259.06;5006163;28;20203;-63
2022/01/29 08:48:56;;;;;;;5.23;4.73;;;;;;;4.53;100.00;101266.59;5009668;28;20191;-63
2022/01/29 08:51:21;;;;;;;5.57;4.93;;;;;;;4.45;100.00;101265.84;5012838;28;20222;-63
2022/01/29 08:53:46;;;;;;;5.47;4.70;;;;;;;4.55;100.00;101255.56;5018788;28;20178;-62
2022/01/29 08:56:12;;;;;;;6.05;5.45;;;;;;;4.35;100.00;101254.06;5012766;28;20423;-62
2022/01/29 08:58:37;;;;;;;4.43;4.03;;;;;;;4.25;100.00;101248.19;5020272;28;20663;-63
2022/01/29 09:01:07;;;;;;;5.33;4.80;;;;;;;4.30;100.00;101251.53;5012990;28;20230;-64
2022/01/29 09:03:32;;;;;;;5.97;4.40;;;;;;;4.34;100.00;101253.22;5020075;28;20202;-62
2022/01/29 09:05:58;;;;;;;4.67;4.03;;;;;;;4.29;100.00;101254.97;5026912;28;20194;-63
2022/01/29 09:08:23;;;;;;;6.03;5.40;;;;;;;4.67;100.00;101248.59;5009442;28;20916;-63
2022/01/29 09:10:49;;;;;;;5.57;4.80;;;;;;;4.28;100.00;101242.22;5016195;28;20232;-64
2022/01/29 09:13:15;;;;;;;4.13;3.60;;;;;;;4.27;100.00;101254.13;5017602;28;20242;-63
2022/01/29 09:15:40;;;;;;;4.85;4.32;;;;;;;4.56;100.00;101247.06;5018882;28;20531;-63
2022/01/29 09:18:06;;;;;;;5.40;4.90;;;;;;;4.77;100.00;101238.31;5017168;28;20450;-63
2022/01/29 09:20:31;;;;;;;3.77;3.47;;;;;;;4.51;100.00;101240.31;5005189;28;20599;-63
2022/01/29 09:22:56;;;;;;;3.93;3.20;;;;;;;4.36;100.00;101231.09;4999120;28;20176;-62
2022/01/29 09:25:22;;;;;;;3.37;3.07;;;;;;;4.42;100.00;101240.41;4997709;28;20249;-64
2022/01/29 09:27:47;;;;;;;3.30;3.00;;;;;;;4.39;100.00;101242.13;4995907;28;20643;-63
2022/01/29 09:30:13;;;;;;;3.17;2.87;;;;;;;4.40;100.00;101229.38;4981779;28;20287;-63
2022/01/29 09:32:39;;;;;;;3.93;3.23;;;;;;;4.45;100.00;101221.69;5002718;28;20187;-64
2022/01/29 09:35:05;;;;;;;3.53;3.10;;;;;;;4.60;100.00;101226.63;4990111;28;20199;-62
2022/01/29 09:37:31;;;;;;;5.03;3.53;;;;;;;4.45;100.00;101227.63;4990763;28;20261;-62
2022/01/29 09:39:56;;;;;;;2.87;2.57;;;;;;;4.38;100.00;101223.47;4991075;28;20640;-63
2022/01/29 09:42:22;;;;;;;3.13;2.83;;;;;;;4.43;100.00;101228.50;4989266;28;20280;-63
2022/01/29 09:44:49;;;;;;;3.50;2.73;;;;;;;4.39;100.00;101225.16;4990341;28;20262;-63
2022/01/29 09:47:17;;;;;;;3.40;3.10;;;;;;;4.46;100.00;101211.47;4991031;28;20203;-62
2022/01/29 09:49:43;;;;;;;3.17;2.83;;;;;;;4.50;100.00;101214.81;4989701;28;20177;-62
2022/01/29 09:52:09;;;;;;;3.93;2.53;;;;;;;4.34;100.00;101215.00;4988735;28;20238;-63
2022/01/29 09:54:34;;;;;;;3.57;2.40;;;;;;;4.44;100.00;101212.34;4991814;28;20176;-63
2022/01/29 09:56:59;;;;;;;3.20;2.80;;;;;;;4.55;100.00;101209.69;5007175;28;20226;-62
2022/01/29 09:59:26;;;;;;;2.83;2.37;;;;;;;4.56;100.00;101206.28;5005445;28;20180;-63
2022/01/29 10:01:51;;;;;;;3.83;2.53;;;;;;;4.52;100.00;101208.03;5000229;28;20238;-62
2022/01/29 10:04:17;;;;;;;3.33;2.57;;;;;;;4.54;100.00;101208.84;4999883;28;20198;-63
2022/01/29 10:06:44;;;;;;;3.03;2.50;;;;;;;4.60;100.00;101200.28;4994968;28;20548;-62
2022/01/29 10:09:11;;;;;;;2.63;2.43;;;;;;;4.40;100.00;101211.53;4993942;28;20186;-62
2022/01/29 10:11:37;;;;;;;2.90;2.60;;;;;;;4.49;100.00;101198.72;4999048;28;20257;-63
2022/01/29 10:14:04;;;;;;;2.80;2.50;;;;;;;4.53;100.00;101202.06;5006870;28;20648;-62
2022/01/29 10:16:32;;;;;;;3.83;2.90;;;;;;;4.53;100.00;101205.44;5001666;28;20698;-62
2022/01/29 10:19:11;;;;;;;2.67;2.37;;;;;;;4.49;100.00;101202.94;4987832;28;20187;-64
2022/01/29 10:21:46;;;;;;;2.50;2.30;;;;;;;4.58;100.00;101199.47;4992480;28;20245;-64
2022/01/29 10:24:17;;;;;;;2.73;2.53;;;;;;;4.69;100.00;101198.47;5008796;28;20193;-63
2022/01/29 10:26:48;;;;;;;2.57;2.37;;;;;;;4.73;100.00;101196.72;4993547;28;20208;-63
2022/01/29 10:29:27;;;;;;;2.97;2.43;;;;;;;4.81;100.00;101188.97;5011509;28;20222;-64
2022/01/29 10:31:55;;;;;;;2.40;2.20;;;;;;;4.88;100.00;101185.47;5001017;28;20613;-63
2022/01/29 10:34:29;;;;;;;3.57;2.63;;;;;;;4.74;100.00;101182.25;5011326;28;20541;-63
2022/01/29 10:37:17;;;;;;;2.30;2.10;;;;;;;4.80;100.00;101177.06;5008811;28;20203;-62
2022/01/29 10:39:57;;;;;;;2.90;2.53;;;;;;;4.89;100.00;101176.09;4996240;28;20194;-64
2022/01/29 10:42:32;;;;;;;2.40;2.20;;;;;;;4.99;100.00;101182.78;4997423;28;20238;-63
2022/01/29 10:45:04;;;;;;;2.50;2.30;;;;;;;5.10;100.00;101185.19;5009814;28;20191;-64
2022/01/29 10:47:30;;;;;;;3.13;2.83;;;;;;;5.14;100.00;101179.19;5003501;28;20746;-63
2022/01/29 10:50:02;;;;;;;2.67;2.00;;;;;;;5.18;100.00;101191.00;4995961;28;20191;-63
2022/01/29 10:52:30;;;;;;;2.40;2.20;;;;;;;5.22;99.57;101186.72;5001012;28;20222;-63
2022/01/29 10:54:59;;;;;;;2.40;2.20;;;;;;;5.10;99.76;101193.69;5012492;28;20332;-63
2022/01/29 10:57:31;;;;;;;3.57;2.40;;;;;;;5.13;100.00;101182.59;5012397;28;20208;-63
2022/01/29 10:59:56;;;;;;;2.40;2.20;;;;;;;5.07;100.00;101185.22;4994121;28;20194;-63
2022/01/29 11:02:25;;;;;;;1.90;1.80;;;;;;;5.08;100.00;101185.19;4997860;28;20225;-62
2022/01/29 11:04:51;;;;;;;2.10;2.00;;;;;;;5.11;100.00;101174.97;5011404;28;20185;-63
2022/01/29 11:07:18;;;;;;;1.83;1.73;;;;;;;5.14;100.00;101177.44;5010059;28;20358;-63
2022/01/29 11:09:46;;;;;;;2.47;2.27;;;;;;;5.15;100.00;101174.03;4994721;28;20179;-63
2022/01/29 11:12:16;;;;;;;2.60;2.40;;;;;;;5.33;99.37;101177.19;5004725;28;20258;-64
2022/01/29 11:14:41;;;;;;;2.60;2.20;;;;;;;5.39;98.69;101171.16;4986015;28;20183;-63
2022/01/29 11:17:08;;;;;;;2.47;2.27;;;;;;;5.40;99.35;101165.19;4983494;28;20540;-62
2022/01/29 11:19:34;;;;;;;2.10;1.90;;;;;;;5.39;99.67;101161.78;4986864;28;20189;-63
2022/01/29 11:22:03;;;;;;;2.83;2.63;;;;;;;5.50;100.00;101159.06;4996088;28;20232;-63
2022/01/29 11:24:30;;;;;;;2.57;2.37;;;;;;;5.43;100.00;101152.38;5002626;28;20181;-64
2022/01/29 11:26:56;;;;;;;2.70;2.50;;;;;;;5.42;100.00;101160.88;4996469;28;20222;-63